Ramore, Canada
Current Conditions -  °F | °C
As of 1:00 AM on Sunday 26 Oct 2014 (Local Time) from CYTS Reporting Station
Light Rain Light Rain  
Wind Chill: 29°   Ceiling: 1100
Heat Index: 37°   Visibility: 10mi
Dew Point: 36°   Wind: 15mph
Humidity: 93%   Direction: 290°WNW
Pressure: 29.46"   Gusts: 22mph
Location:  48.42°N, 80.32°W
Report Text: CYTS 260500Z 29013G19KT 10SM -RA BKN011 OVC021 03/02 A2946 RMK SC5SC3 SLP987
Loading
Personal Weather Stations






























Interactive Weather Map
Tropical Storm Tracking
New forecast layout! Learn more

10-Day Weather Forecast

Advertisements
Track Severe Weather on mobile